createdAt,value
2023-04-21T00:01:59.218Z,9.80
2023-04-21T00:04:28.785Z,9.83
2023-04-21T00:06:57.192Z,9.30
2023-04-21T00:09:25.166Z,10.53
2023-04-21T00:11:53.413Z,9.73
2023-04-21T00:14:24.291Z,9.23
2023-04-21T00:16:55.816Z,9.57
2023-04-21T00:19:27.224Z,10.63
2023-04-21T00:21:59.086Z,11.97
2023-04-21T00:24:27.294Z,10.63
2023-04-21T00:26:57.394Z,9.47
2023-04-21T00:29:27.888Z,10.13
2023-04-21T00:31:56.895Z,11.30
2023-04-21T00:34:30.491Z,9.83
2023-04-21T00:36:58.304Z,10.47
2023-04-21T00:39:26.970Z,11.60
2023-04-21T00:41:54.786Z,11.50
2023-04-21T00:44:26.653Z,9.90
2023-04-21T00:46:58.715Z,11.40
2023-04-21T00:49:32.941Z,11.67
2023-04-21T00:52:17.252Z,11.20
2023-04-21T00:54:45.797Z,10.93
2023-04-21T00:57:16.783Z,11.40
2023-04-21T00:59:57.027Z,14.27
2023-04-21T01:02:28.522Z,11.30
2023-04-21T01:04:58.998Z,10.57
2023-04-21T01:07:26.975Z,14.47
2023-04-21T01:10:07.265Z,9.57
2023-04-21T01:12:49.349Z,13.63
2023-04-21T01:15:18.527Z,11.30
2023-04-21T01:17:46.379Z,11.83
2023-04-21T01:20:18.452Z,12.30
2023-04-21T01:22:55.489Z,12.43
2023-04-21T01:25:30.473Z,12.57
2023-04-21T01:27:58.668Z,13.47
2023-04-21T01:30:27.359Z,13.47
2023-04-21T01:32:56.100Z,11.93
2023-04-21T01:35:23.913Z,14.00
2023-04-21T01:38:04.773Z,13.63
2023-04-21T01:40:38.941Z,12.80
2023-04-21T01:43:07.521Z,14.17
2023-04-21T01:45:37.009Z,12.73
2023-04-21T01:48:07.127Z,12.47
2023-04-21T01:50:37.149Z,12.43
2023-04-21T01:53:08.635Z,14.27
2023-04-21T01:55:37.608Z,11.93
2023-04-21T01:58:07.387Z,12.27
2023-04-21T02:00:38.437Z,14.80
2023-04-21T02:03:08.026Z,12.30
2023-04-21T02:05:37.145Z,13.90
2023-04-21T02:08:06.544Z,12.40
2023-04-21T02:10:37.452Z,13.60
2023-04-21T02:13:06.710Z,11.47
2023-04-21T02:15:34.710Z,12.10
2023-04-21T02:18:08.368Z,12.37
2023-04-21T02:20:38.694Z,14.53
2023-04-21T02:23:07.886Z,14.97
2023-04-21T02:25:37.258Z,12.27
2023-04-21T02:28:07.419Z,12.93
2023-04-21T02:30:37.253Z,14.50
2023-04-21T02:33:08.053Z,13.83
2023-04-21T02:35:37.422Z,13.37
2023-04-21T02:38:07.387Z,13.43
2023-04-21T02:40:38.923Z,12.77
2023-04-21T02:43:07.883Z,12.87
2023-04-21T02:45:38.136Z,14.37
2023-04-21T02:48:07.689Z,13.90
2023-04-21T02:50:38.122Z,12.80
2023-04-21T02:53:17.200Z,17.37
2023-04-21T02:55:51.153Z,14.63
2023-04-21T02:58:18.965Z,14.03
2023-04-21T03:00:47.469Z,13.70
2023-04-21T03:03:16.970Z,13.27
2023-04-21T03:05:47.268Z,12.10
2023-04-21T03:08:17.352Z,12.17
2023-04-21T03:10:48.897Z,13.60
2023-04-21T03:13:17.482Z,14.37
2023-04-21T03:15:49.271Z,12.90
2023-04-21T03:18:17.761Z,13.10
2023-04-21T03:20:46.974Z,10.80
2023-04-21T03:23:17.838Z,12.73
2023-04-21T03:25:45.592Z,13.50
2023-04-21T03:28:15.808Z,12.83
2023-04-21T03:30:43.673Z,10.80
2023-04-21T03:33:11.487Z,12.70
2023-04-21T03:35:39.401Z,11.83
2023-04-21T03:38:07.553Z,13.63
2023-04-21T03:40:37.446Z,12.90
2023-04-21T03:43:05.221Z,13.10
2023-04-21T03:45:39.116Z,15.73
2023-04-21T03:48:07.921Z,12.30
2023-04-21T03:50:37.412Z,11.23
2023-04-21T03:53:07.676Z,11.77
2023-04-21T03:55:43.807Z,13.83
2023-04-21T03:58:11.948Z,16.53
2023-04-21T04:00:41.067Z,14.23
2023-04-21T04:03:08.931Z,12.97
2023-04-21T04:05:41.498Z,12.03
2023-04-21T04:08:09.518Z,13.23
2023-04-21T04:10:37.696Z,13.07
2023-04-21T04:13:07.200Z,14.27
2023-04-21T04:15:37.609Z,14.17
2023-04-21T04:18:09.399Z,14.67
2023-04-21T04:20:37.769Z,15.03
2023-04-21T04:23:08.842Z,14.20
2023-04-21T04:25:39.980Z,15.30
2023-04-21T04:28:09.456Z,18.53
2023-04-21T04:30:37.840Z,15.40
2023-04-21T04:33:10.401Z,20.50
2023-04-21T04:35:38.923Z,14.97
2023-04-21T04:38:08.079Z,18.80
2023-04-21T04:40:38.474Z,17.57
2023-04-21T04:43:08.942Z,18.43
2023-04-21T04:45:39.096Z,18.30
2023-04-21T04:48:09.342Z,16.03
2023-04-21T04:50:37.873Z,18.03
2023-04-21T04:53:06.442Z,18.97
2023-04-21T04:55:37.393Z,17.57
2023-04-21T04:58:07.678Z,20.37
2023-04-21T05:00:37.066Z,18.67
2023-04-21T05:03:05.149Z,19.10
2023-04-21T05:05:39.116Z,18.70
2023-04-21T05:08:07.287Z,18.07
2023-04-21T05:10:39.035Z,19.07
2023-04-21T05:13:07.852Z,20.33
2023-04-21T05:15:37.632Z,21.93
2023-04-21T05:18:05.609Z,19.63
2023-04-21T05:20:44.341Z,21.80
2023-04-21T05:23:13.123Z,21.10
2023-04-21T05:25:41.088Z,21.67
2023-04-21T05:28:08.815Z,24.60
2023-04-21T05:30:37.865Z,21.70
2023-04-21T05:33:05.742Z,22.00
2023-04-21T05:35:39.350Z,23.07
2023-04-21T05:38:07.830Z,22.57
2023-04-21T05:40:39.478Z,20.83
2023-04-21T05:43:07.823Z,21.77
2023-04-21T05:45:42.056Z,25.10
2023-04-21T05:48:13.758Z,24.60
2023-04-21T05:50:55.661Z,24.10
2023-04-21T05:53:24.630Z,25.93
2023-04-21T05:55:56.390Z,25.20
2023-04-21T05:58:26.852Z,22.77
2023-04-21T06:00:59.056Z,27.17
2023-04-21T06:03:34.722Z,27.30
2023-04-21T06:06:07.870Z,22.37
2023-04-21T06:08:35.882Z,25.43
2023-04-21T06:11:08.057Z,27.53
2023-04-21T06:13:38.834Z,23.87
2023-04-21T06:16:08.095Z,25.60
2023-04-21T06:18:40.029Z,25.73
2023-04-21T06:21:09.497Z,25.53
2023-04-21T06:23:39.647Z,24.50
2023-04-21T06:26:09.451Z,26.13
2023-04-21T06:28:45.482Z,23.63
2023-04-21T06:31:35.538Z,26.93
2023-04-21T06:34:11.843Z,26.73
2023-04-21T06:36:45.165Z,24.90
2023-04-21T06:39:13.107Z,29.67
2023-04-21T06:41:43.902Z,26.00
2023-04-21T06:44:16.851Z,28.63
2023-04-21T06:46:48.294Z,27.50
2023-04-21T06:49:18.251Z,32.90
2023-04-21T06:51:48.108Z,32.53
2023-04-21T06:54:17.957Z,27.83
2023-04-21T06:56:53.921Z,27.80
2023-04-21T06:59:26.633Z,30.03
2023-04-21T07:01:59.072Z,31.13
2023-04-21T07:04:30.276Z,28.20
2023-04-21T07:07:02.399Z,29.13
2023-04-21T07:09:33.859Z,29.07
2023-04-21T07:12:06.629Z,29.90
2023-04-21T07:14:38.170Z,30.97
2023-04-21T07:17:06.772Z,30.37
2023-04-21T07:19:38.264Z,28.83
2023-04-21T07:22:08.621Z,28.47
2023-04-21T07:24:37.463Z,27.20
2023-04-21T07:27:10.086Z,29.03
2023-04-21T07:29:38.628Z,25.77
2023-04-21T07:32:10.711Z,26.97
2023-04-21T07:34:39.158Z,28.17
2023-04-21T07:37:09.167Z,27.43
2023-04-21T07:39:39.811Z,27.73
2023-04-21T07:42:08.427Z,25.03
2023-04-21T07:44:37.665Z,27.33
2023-04-21T07:47:12.075Z,27.33
2023-04-21T07:49:40.064Z,26.53
2023-04-21T07:52:09.595Z,25.87
2023-04-21T07:54:40.439Z,25.53
2023-04-21T07:57:09.587Z,25.67
2023-04-21T07:59:38.325Z,26.00
2023-04-21T08:02:08.788Z,26.53
2023-04-21T08:04:39.671Z,24.77
2023-04-21T08:07:10.491Z,25.17
2023-04-21T08:09:39.848Z,26.07
2023-04-21T08:12:08.284Z,25.27
2023-04-21T08:14:36.661Z,25.83
2023-04-21T08:17:05.766Z,24.87
2023-04-21T08:19:38.699Z,27.40
2023-04-21T08:22:10.469Z,29.13
2023-04-21T08:24:38.344Z,26.73
2023-04-21T08:27:09.208Z,26.20
2023-04-21T08:29:39.890Z,25.33
2023-04-21T08:32:08.316Z,28.60
2023-04-21T08:34:36.280Z,27.57
2023-04-21T08:37:08.057Z,26.70
2023-04-21T08:39:37.196Z,28.13
2023-04-21T08:42:09.179Z,25.63
2023-04-21T08:44:38.621Z,26.90
2023-04-21T08:47:18.013Z,28.23
2023-04-21T08:49:49.233Z,27.53
2023-04-21T08:52:20.251Z,28.13
2023-04-21T08:54:55.562Z,26.10
2023-04-21T08:57:27.958Z,23.60
2023-04-21T08:59:58.186Z,25.10
2023-04-21T09:02:29.684Z,24.90
2023-04-21T09:05:00.033Z,25.23
2023-04-21T09:07:36.988Z,22.83
2023-04-21T09:10:09.139Z,22.00
2023-04-21T09:12:42.876Z,22.83
2023-04-21T09:15:16.950Z,23.00
2023-04-21T09:17:48.366Z,24.20
2023-04-21T09:20:18.625Z,22.53
2023-04-21T09:22:58.526Z,23.97
2023-04-21T09:25:29.507Z,21.87
2023-04-21T09:27:58.458Z,21.80
2023-04-21T09:30:28.330Z,19.20
2023-04-21T09:32:59.683Z,19.10
2023-04-21T09:35:30.080Z,21.20
2023-04-21T09:37:57.797Z,19.20
2023-04-21T09:40:30.394Z,21.73
2023-04-21T09:42:58.285Z,19.93
2023-04-21T09:45:39.702Z,18.77
2023-04-21T09:48:11.221Z,19.60
2023-04-21T09:51:20.772Z,20.93
2023-04-21T09:53:29.770Z,20.53
2023-04-21T09:56:07.390Z,22.00
2023-04-21T09:58:44.007Z,22.50
2023-04-21T10:01:13.546Z,20.23
2023-04-21T10:03:50.132Z,22.70
2023-04-21T10:06:18.748Z,20.07
2023-04-21T10:08:48.924Z,19.10
2023-04-21T10:11:19.588Z,18.00
2023-04-21T10:13:48.908Z,18.77
2023-04-21T10:16:19.890Z,19.63
2023-04-21T10:18:47.798Z,19.17
2023-04-21T10:21:22.053Z,20.20
2023-04-21T10:23:55.939Z,19.33
2023-04-21T10:26:39.927Z,18.37
2023-04-21T10:29:17.392Z,18.33
2023-04-21T10:31:58.145Z,20.77
2023-04-21T10:34:38.420Z,18.60
2023-04-21T10:37:19.684Z,19.73
2023-04-21T10:39:59.738Z,16.67
2023-04-21T10:42:31.345Z,19.50
2023-04-21T10:45:17.154Z,16.57
2023-04-21T10:47:52.396Z,16.90
2023-04-21T10:50:26.535Z,18.50
2023-04-21T10:52:57.327Z,14.43
2023-04-21T10:55:30.641Z,17.10
2023-04-21T10:58:09.129Z,16.03
2023-04-21T11:00:39.701Z,14.63
2023-04-21T11:03:09.237Z,16.40
2023-04-21T11:05:40.645Z,15.17
2023-04-21T11:08:14.119Z,15.03
2023-04-21T11:10:51.118Z,15.93
2023-04-21T11:13:22.331Z,14.03
2023-04-21T11:16:04.234Z,14.43
2023-04-21T11:18:38.121Z,14.47
2023-04-21T11:21:10.789Z,15.53
2023-04-21T11:23:42.150Z,14.20
2023-04-21T11:26:10.009Z,13.90
2023-04-21T11:28:44.456Z,15.43
2023-04-21T11:31:13.107Z,14.93
2023-04-21T11:33:40.963Z,13.77
2023-04-21T11:36:09.351Z,13.93
2023-04-21T11:38:42.888Z,12.07
2023-04-21T11:41:12.713Z,17.13
2023-04-21T11:43:47.019Z,12.63
2023-04-21T11:46:19.247Z,13.13
2023-04-21T11:48:59.876Z,16.30
2023-04-21T11:51:37.851Z,12.43
2023-04-21T11:54:09.504Z,13.00
2023-04-21T11:56:39.032Z,12.33
2023-04-21T11:59:19.844Z,12.27
2023-04-21T12:01:49.283Z,12.60
2023-04-21T12:04:20.247Z,15.40
2023-04-21T12:06:58.561Z,12.67
2023-04-21T12:09:29.644Z,13.63
2023-04-21T12:11:59.968Z,10.60
2023-04-21T12:14:30.246Z,13.30
2023-04-21T12:16:59.724Z,11.63
2023-04-21T12:19:40.504Z,10.13
2023-04-21T12:22:09.604Z,10.40
2023-04-21T12:24:39.305Z,11.50
2023-04-21T12:27:09.586Z,10.67
2023-04-21T12:29:49.429Z,12.67
2023-04-21T12:32:28.428Z,12.30
2023-04-21T12:34:58.464Z,13.27
2023-04-21T12:37:28.739Z,11.97
2023-04-21T12:39:58.886Z,11.00
2023-04-21T12:42:27.617Z,13.07
2023-04-21T12:44:57.034Z,11.33
2023-04-21T12:47:28.688Z,13.67
2023-04-21T12:49:56.591Z,13.20
2023-04-21T12:52:24.302Z,15.77
2023-04-21T12:54:52.742Z,13.90
2023-04-21T12:57:20.981Z,12.97
2023-04-21T12:59:49.411Z,13.87
2023-04-21T13:02:24.365Z,14.50
2023-04-21T13:04:58.382Z,13.87
2023-04-21T13:07:27.081Z,14.30
2023-04-21T13:09:58.959Z,13.70
2023-04-21T13:12:26.818Z,14.13
2023-04-21T13:14:54.611Z,13.37
2023-04-21T13:17:28.827Z,13.67
2023-04-21T13:19:58.772Z,14.13
2023-04-21T13:22:30.342Z,11.87
2023-04-21T13:24:59.082Z,11.20
2023-04-21T13:27:28.393Z,10.60
2023-04-21T13:29:59.559Z,9.77
2023-04-21T13:32:30.274Z,12.00
2023-04-21T13:34:58.264Z,13.50
2023-04-21T13:37:29.163Z,11.03
2023-04-21T13:39:57.203Z,11.83
2023-04-21T13:42:28.271Z,11.43
2023-04-21T13:44:56.112Z,11.97
2023-04-21T13:47:27.629Z,12.23
2023-04-21T13:49:59.176Z,11.03
2023-04-21T13:52:27.299Z,12.00
2023-04-21T13:55:00.118Z,12.23
2023-04-21T13:57:31.325Z,13.30
2023-04-21T14:00:00.698Z,10.57
2023-04-21T14:02:32.621Z,12.27
2023-04-21T14:05:03.180Z,12.73
2023-04-21T14:07:32.496Z,11.53
2023-04-21T14:10:00.620Z,10.40
2023-04-21T14:12:29.498Z,11.40
2023-04-21T14:15:07.584Z,10.87
2023-04-21T14:17:39.888Z,12.83
2023-04-21T14:20:15.020Z,11.63
2023-04-21T14:22:49.929Z,10.37
2023-04-21T14:25:19.065Z,11.30
2023-04-21T14:27:51.706Z,12.33
2023-04-21T14:30:20.044Z,12.40
2023-04-21T14:32:49.023Z,17.07
2023-04-21T14:35:18.312Z,12.43
2023-04-21T14:37:49.639Z,13.87
2023-04-21T14:40:17.648Z,15.13
2023-04-21T14:42:45.391Z,14.53
2023-04-21T14:47:49.178Z,14.60
2023-04-21T14:50:20.699Z,16.33
2023-04-21T14:52:49.762Z,13.83
2023-04-21T14:55:19.181Z,13.57
2023-04-21T14:57:49.279Z,14.17
2023-04-21T15:00:19.898Z,16.37
2023-04-21T15:02:49.346Z,15.10
2023-04-21T15:05:20.855Z,12.40
2023-04-21T15:07:49.795Z,15.20
2023-04-21T15:10:19.250Z,14.60
2023-04-21T15:12:47.146Z,11.37
2023-04-21T15:15:20.980Z,12.63
2023-04-21T15:17:49.241Z,14.13
2023-04-21T15:20:17.355Z,14.03
2023-04-21T15:22:50.654Z,14.90
2023-04-21T15:25:19.470Z,15.83
2023-04-21T15:27:50.239Z,20.13
2023-04-21T15:30:19.361Z,16.00
2023-04-21T15:32:49.281Z,15.33
2023-04-21T15:35:19.389Z,16.87
2023-04-21T15:37:50.584Z,17.00
2023-04-21T15:40:18.536Z,15.33
2023-04-21T15:42:48.249Z,15.97
2023-04-21T15:45:19.188Z,15.43
2023-04-21T15:47:49.222Z,16.30
2023-04-21T15:50:19.128Z,18.00
2023-04-21T15:52:51.016Z,20.00
2023-04-21T15:55:19.041Z,18.97
2023-04-21T15:57:47.658Z,19.73
2023-04-21T16:00:19.095Z,21.50
2023-04-21T16:02:47.047Z,20.17
2023-04-21T16:05:19.689Z,19.47
2023-04-21T16:07:50.404Z,19.60
2023-04-21T16:10:19.409Z,19.30
2023-04-21T16:12:50.869Z,18.43
2023-04-21T16:15:24.470Z,18.50
2023-04-21T16:17:54.472Z,22.20
2023-04-21T16:20:22.392Z,20.53
2023-04-21T16:22:59.549Z,17.47
2023-04-21T16:25:28.002Z,18.17
2023-04-21T16:27:58.687Z,17.93
2023-04-21T16:30:29.774Z,16.90
2023-04-21T16:32:57.905Z,19.17
2023-04-21T16:35:27.149Z,19.40
2023-04-21T16:38:00.270Z,20.77
2023-04-21T16:40:29.238Z,19.67
2023-04-21T16:43:00.175Z,16.80
2023-04-21T16:45:29.619Z,18.37
2023-04-21T16:47:59.998Z,17.73
2023-04-21T16:50:30.758Z,18.17
2023-04-21T16:53:01.049Z,16.70
2023-04-21T16:55:29.878Z,16.43
2023-04-21T16:58:01.782Z,19.60
2023-04-21T17:00:31.279Z,18.47
2023-04-21T17:02:59.198Z,20.23
2023-04-21T17:05:27.321Z,18.87
2023-04-21T17:07:58.183Z,18.70
2023-04-21T17:10:31.062Z,17.97
2023-04-21T17:12:59.805Z,19.87
2023-04-21T17:15:29.485Z,19.60
2023-04-21T17:18:00.207Z,16.43
2023-04-21T17:20:32.139Z,17.97
2023-04-21T17:23:01.155Z,16.80
2023-04-21T17:25:31.291Z,18.23
2023-04-21T17:28:00.128Z,20.07
2023-04-21T17:30:28.011Z,17.03
2023-04-21T17:33:08.395Z,18.57
2023-04-21T17:35:55.809Z,17.63
2023-04-21T17:38:30.906Z,20.40
2023-04-21T17:41:02.152Z,20.90
2023-04-21T17:43:30.178Z,19.77
2023-04-21T17:45:59.383Z,18.07
2023-04-21T17:48:27.398Z,19.03
2023-04-21T17:50:55.160Z,17.63
2023-04-21T17:53:25.028Z,18.10
2023-04-21T17:55:53.614Z,19.57
2023-04-21T17:58:31.629Z,18.77
2023-04-21T18:01:00.362Z,26.03
2023-04-21T18:03:37.184Z,19.53
2023-04-21T18:06:17.281Z,16.97
2023-04-21T18:08:49.904Z,16.13
2023-04-21T18:11:19.501Z,18.77
2023-04-21T18:13:51.161Z,17.60
2023-04-21T18:16:19.914Z,18.97
2023-04-21T18:18:50.062Z,17.20
2023-04-21T18:21:18.112Z,8.20
2023-04-21T18:23:50.867Z,4.93
2023-04-21T18:26:20.178Z,7.67
2023-04-21T18:28:49.934Z,7.73
2023-04-21T18:31:17.737Z,7.17
2023-04-21T18:33:50.584Z,5.40
2023-04-21T18:36:18.389Z,5.63
2023-04-21T18:38:49.683Z,3.53
2023-04-21T18:41:19.968Z,5.03
2023-04-21T18:43:50.554Z,5.63
2023-04-21T18:46:21.317Z,4.90
2023-04-21T18:48:49.788Z,5.37
2023-04-21T18:51:19.575Z,5.33
2023-04-21T18:53:47.857Z,7.37
2023-04-21T18:56:19.806Z,4.43
2023-04-21T18:58:51.328Z,4.70
2023-04-21T19:01:22.115Z,5.27
2023-04-21T19:03:50.205Z,4.23
2023-04-21T19:06:19.837Z,4.67
2023-04-21T19:08:51.246Z,4.77
2023-04-21T19:11:19.040Z,5.00
2023-04-21T19:13:51.370Z,4.93
2023-04-21T19:16:21.979Z,6.23
2023-04-21T19:18:52.131Z,6.90
2023-04-21T19:21:21.533Z,6.60
2023-04-21T19:23:49.995Z,8.20
2023-04-21T19:26:21.801Z,6.30
2023-04-21T19:28:58.440Z,6.13
2023-04-21T19:31:29.684Z,7.67
2023-04-21T19:33:59.450Z,7.73
2023-04-21T19:36:30.024Z,6.20
2023-04-21T19:39:00.180Z,7.87
2023-04-21T19:41:28.661Z,6.70
2023-04-21T19:44:01.768Z,7.27
2023-04-21T19:46:30.022Z,7.10
2023-04-21T19:48:57.875Z,7.60
2023-04-21T19:51:25.604Z,9.40
2023-04-21T19:54:03.166Z,8.20
2023-04-21T19:56:40.192Z,9.97
2023-04-21T19:59:11.654Z,8.67
2023-04-21T20:01:40.234Z,10.23
2023-04-21T20:04:10.225Z,8.63
2023-04-21T20:06:47.324Z,9.67
2023-04-21T20:09:20.161Z,11.07
2023-04-21T20:11:49.406Z,10.80
2023-04-21T20:14:20.363Z,12.27
2023-04-21T20:16:50.118Z,13.13
2023-04-21T20:19:27.540Z,12.67
2023-04-21T20:22:01.653Z,13.43
2023-04-21T20:24:30.478Z,10.33
2023-04-21T20:26:58.318Z,16.23
2023-04-21T20:29:31.564Z,10.23
2023-04-21T20:31:59.956Z,17.63
2023-04-21T20:34:29.679Z,8.83
2023-04-21T20:37:07.723Z,8.87
2023-04-21T20:39:41.457Z,10.60
2023-04-21T20:42:13.526Z,7.83
2023-04-21T20:44:47.617Z,11.00
2023-04-21T20:47:20.242Z,10.80
2023-04-21T20:49:50.289Z,10.03
2023-04-21T20:52:20.642Z,8.20
2023-04-21T20:54:48.619Z,7.73
2023-04-21T20:57:17.180Z,13.73
2023-04-21T20:59:50.140Z,12.87
2023-04-21T21:02:20.329Z,9.73
2023-04-21T21:04:50.078Z,9.37
2023-04-21T21:07:18.854Z,9.23
2023-04-21T21:09:49.661Z,6.83
2023-04-21T21:12:20.067Z,14.23
2023-04-21T21:14:51.376Z,10.97
2023-04-21T21:17:22.426Z,7.57
2023-04-21T21:19:50.462Z,7.10
2023-04-21T21:22:20.382Z,7.00
2023-04-21T21:24:50.466Z,10.83
2023-04-21T21:27:20.603Z,6.33
2023-04-21T21:29:51.030Z,8.63
2023-04-21T21:32:20.894Z,7.57
2023-04-21T21:34:50.603Z,7.60
2023-04-21T21:37:19.924Z,8.33
2023-04-21T21:39:49.344Z,6.83
2023-04-21T21:42:17.125Z,10.83
2023-04-21T21:44:47.703Z,11.17
2023-04-21T21:47:21.852Z,10.60
2023-04-21T21:49:55.546Z,8.80
2023-04-21T21:52:24.378Z,7.40
2023-04-21T21:54:55.829Z,11.17
2023-04-21T21:57:28.553Z,11.30
2023-04-21T22:00:00.339Z,11.90
2023-04-21T22:02:31.921Z,11.53
2023-04-21T22:05:00.775Z,9.27
2023-04-21T22:07:29.366Z,11.90
2023-04-21T22:10:00.512Z,9.30
2023-04-21T22:12:31.850Z,11.30
2023-04-21T22:15:00.403Z,9.97
2023-04-21T22:17:30.789Z,11.77
2023-04-21T22:20:01.373Z,10.50
2023-04-21T22:22:30.224Z,12.40
2023-04-21T22:25:00.164Z,11.53
2023-04-21T22:27:35.579Z,10.87
2023-04-21T22:30:08.853Z,10.03
2023-04-21T22:32:36.738Z,12.60
2023-04-21T22:35:10.978Z,14.00
2023-04-21T22:37:40.516Z,11.13
2023-04-21T22:40:12.065Z,10.63
2023-04-21T22:42:40.397Z,13.00
2023-04-21T22:45:09.386Z,12.73
2023-04-21T22:47:41.865Z,10.77
2023-04-21T22:50:12.345Z,11.03
2023-04-21T22:52:40.477Z,12.47
2023-04-21T22:55:10.196Z,12.87
2023-04-21T22:57:40.350Z,16.37
2023-04-21T23:00:09.730Z,10.93
2023-04-21T23:02:42.185Z,13.10
2023-04-21T23:05:11.792Z,12.43
2023-04-21T23:07:39.610Z,10.50
2023-04-21T23:10:11.303Z,13.47
2023-04-21T23:12:40.662Z,11.77
2023-04-21T23:15:11.127Z,16.23
2023-04-21T23:17:40.216Z,13.67
2023-04-21T23:20:12.575Z,12.03
2023-04-21T23:22:41.137Z,16.63
2023-04-21T23:25:10.334Z,12.83
2023-04-21T23:27:41.183Z,13.83
2023-04-21T23:30:11.197Z,12.27
2023-04-21T23:32:39.091Z,14.77
2023-04-21T23:35:07.825Z,14.03
2023-04-21T23:37:40.482Z,12.30
2023-04-21T23:40:12.635Z,13.30
2023-04-21T23:42:40.819Z,13.13
2023-04-21T23:45:09.763Z,14.27
2023-04-21T23:47:39.145Z,13.87
2023-04-21T23:50:12.668Z,13.67
2023-04-21T23:52:44.462Z,13.43
2023-04-21T23:55:12.718Z,16.50
2023-04-21T23:57:40.779Z,11.23
